Accueil
METAR-TAF:

METAR-TAF

Aéroports :

Aéroport de Zadar

Zadar, Croatie

latitude: 44-06N, longitude: 015-21E, altitude: 82 m

Observation

Le bulletin a été fait il y a 38 minutes, à 22:00 UTC
Vent 3 kt de est/sud-est
Température 20°C
Humidité 56%
Pression 1015 hPa
Visibilité 10 km ou plus
pas de nuages en-dessous de 1500 mètres et pas de cumulonimbus.

METAR: LDZD 032200Z 12003KT CAVOK 20/11 Q1015 NOSIG

Heure: 00:38 (22:38 UTC)

Prévision

Le bulletin a été fait il y a 5 heures et 13 minutes, à 17:25 UTC
Prévision valable du 03 à 18 UTC au 04 à 18 UTC
Vent 5 kt de est/sud-est
Visibilité 10 km ou plus
pas de nuages en-dessous de 1500 mètres et pas de cumulonimbus.
Temporairement
du 04 à 10 UTC au 04 à 14 UTC
Vent 8 kt de sud-ouest
Evoluant progressivement
du 04 à 15 UTC au 04 à 17 UTC
Vent 10 kt de sud-est

TAF: LDZD 031725Z 0318/0418 12005KT CAVOK TX30/0412Z TN17/0403Z TEMPO 0410/0414 22008KT BECMG 0415/0417 14010KT

Observations et prévisions météorologiques de plus de 4000 aéroports (messages METAR et TAF).

Les stations disponibles sont représentées par des disques jaunes et rouges sur la carte.

Passer la souris dessus pour voir le nom de la station.

Cliquer dessus pour voir les observations et prévisions météorologiques.

Pour changer de carte: cliquez sur les boutons verts avec une croix noire pour zoomer, sur le bouton vert avec un tiret pour effectuer un zoom arrière, ou sur les flèches vertes pour les cartes adjacentes.


METAR-TAF: